Decoded Metar for KLEW (AUBURN/LEWISTON in ME, USA) (IATA:LEW) | Meteo·Mobile Aviation Weather
aviador You're here:

KLEW Decoded Metar

AUBURN/LEWISTON in ME, USA
Report Time2018-09-26 03:56:00
UTC Time2018-09-26 04:47:15
Flight Rules ifr IFR
WindCalm
Visibility9656 m
Phenomena:Light Rain
Mist
Clouds:Broken 008 Hf
Overcast 012 Hf
Ceiling800 ft
Temp16°C (ISA +2)
Dew Point16°C (100% RH)
QNH1021 hPa
Density Alt446 ft
Elevation289 ft
Report Wrong Elevation
Raw Report
KLEW 260356Z AUTO 00000KT 6SM -RA BR BKN008 OVC012 16/16 A3014 RMK
AO2 CIG 005V010 SLP223 P0007 T01560156 401560017=

Extra information for KLEW:More info

Metar Taf Metar & Taf Last 4 Metars F.Rules Stats Wind Profile Meteogram Temp Stats Airport Information Weather charts Add Link Nearby VenuesMetar ALERT Operation Metar Decoded Social comments

AIRNAV info for KLEW